sensor_id;sensor_type;location;lat;lon;timestamp;pressure;altitude;pressure_sealevel;temperature;humidity
22333;BME280;11334;36.986;-121.936;2022-12-10T00:01:31;101502.69;;;15.63;72.65
22333;BME280;11334;36.986;-121.936;2022-12-10T00:03:58;101496.53;;;15.62;73.35
22333;BME280;11334;36.986;-121.936;2022-12-10T00:06:27;101488.84;;;15.51;73.80
22333;BME280;11334;36.986;-121.936;2022-12-10T00:08:54;101483.72;;;15.42;74.28
22333;BME280;11334;36.986;-121.936;2022-12-10T00:11:22;101476.00;;;15.39;75.06
22333;BME280;11334;36.986;-121.936;2022-12-10T00:13:49;101487.72;;;15.30;75.66
22333;BME280;11334;36.986;-121.936;2022-12-10T00:16:18;101492.22;;;15.22;76.00
22333;BME280;11334;36.986;-121.936;2022-12-10T00:18:46;101491.25;;;15.23;76.11
22333;BME280;11334;36.986;-121.936;2022-12-10T00:21:15;101497.88;;;15.27;75.81
22333;BME280;11334;36.986;-121.936;2022-12-10T00:23:42;101489.25;;;15.25;76.25
22333;BME280;11334;36.986;-121.936;2022-12-10T00:26:17;101494.41;;;15.18;77.02
22333;BME280;11334;36.986;-121.936;2022-12-10T00:28:45;101492.06;;;15.16;77.11
22333;BME280;11334;36.986;-121.936;2022-12-10T00:31:18;101486.56;;;15.17;77.11
22333;BME280;11334;36.986;-121.936;2022-12-10T00:33:45;101483.25;;;15.15;76.83
22333;BME280;11334;36.986;-121.936;2022-12-10T00:36:17;101474.03;;;15.02;76.80
22333;BME280;11334;36.986;-121.936;2022-12-10T00:38:46;101488.88;;;15.04;76.21
22333;BME280;11334;36.986;-121.936;2022-12-10T00:41:13;101478.19;;;14.96;76.04
22333;BME280;11334;36.986;-121.936;2022-12-10T00:43:40;101476.53;;;14.95;76.68
22333;BME280;11334;36.986;-121.936;2022-12-10T00:46:08;101446.19;;;14.81;76.86
22333;BME280;11334;36.986;-121.936;2022-12-10T00:48:34;101459.19;;;14.91;77.30
22333;BME280;11334;36.986;-121.936;2022-12-10T00:51:02;101461.50;;;14.86;77.36
22333;BME280;11334;36.986;-121.936;2022-12-10T00:53:31;101459.69;;;14.79;77.72
22333;BME280;11334;36.986;-121.936;2022-12-10T00:55:58;101463.03;;;14.73;77.95
22333;BME280;11334;36.986;-121.936;2022-12-10T00:58:28;101464.84;;;14.73;77.41
22333;BME280;11334;36.986;-121.936;2022-12-10T01:01:05;101444.34;;;14.73;76.91
22333;BME280;11334;36.986;-121.936;2022-12-10T01:03:32;101444.16;;;14.75;76.88
22333;BME280;11334;36.986;-121.936;2022-12-10T01:06:17;101456.53;;;14.76;77.23
22333;BME280;11334;36.986;-121.936;2022-12-10T01:08:44;101445.31;;;14.64;77.10
22333;BME280;11334;36.986;-121.936;2022-12-10T01:11:12;101458.84;;;14.71;77.11
22333;BME280;11334;36.986;-121.936;2022-12-10T01:13:39;101461.66;;;14.61;77.50
22333;BME280;11334;36.986;-121.936;2022-12-10T01:16:07;101454.84;;;14.67;77.73
22333;BME280;11334;36.986;-121.936;2022-12-10T01:18:34;101467.84;;;14.62;78.13
22333;BME280;11334;36.986;-121.936;2022-12-10T01:21:06;101459.34;;;14.58;78.28
22333;BME280;11334;36.986;-121.936;2022-12-10T01:23:34;101459.34;;;14.58;78.53
22333;BME280;11334;36.986;-121.936;2022-12-10T01:26:07;101452.66;;;14.54;78.23
22333;BME280;11334;36.986;-121.936;2022-12-10T01:28:37;101465.16;;;14.62;78.29
22333;BME280;11334;36.986;-121.936;2022-12-10T01:31:09;101470.50;;;14.62;78.55
22333;BME280;11334;36.986;-121.936;2022-12-10T01:33:36;101469.50;;;14.63;78.32
22333;BME280;11334;36.986;-121.936;2022-12-10T01:36:04;101457.34;;;14.60;78.58
22333;BME280;11334;36.986;-121.936;2022-12-10T01:38:31;101456.47;;;14.52;78.54
22333;BME280;11334;36.986;-121.936;2022-12-10T01:40:58;101454.16;;;14.57;78.65
22333;BME280;11334;36.986;-121.936;2022-12-10T01:43:25;101451.00;;;14.61;78.65
22333;BME280;11334;36.986;-121.936;2022-12-10T01:45:51;101443.00;;;14.61;78.72
22333;BME280;11334;36.986;-121.936;2022-12-10T01:48:18;101445.31;;;14.64;78.58
22333;BME280;11334;36.986;-121.936;2022-12-10T01:50:45;101445.66;;;14.61;78.52
22333;BME280;11334;36.986;-121.936;2022-12-10T01:53:14;101441.16;;;14.62;78.33
22333;BME280;11334;36.986;-121.936;2022-12-10T01:55:47;101430.00;;;14.58;78.38
22333;BME280;11334;36.986;-121.936;2022-12-10T01:58:16;101433.84;;;14.64;78.42
22333;BME280;11334;36.986;-121.936;2022-12-10T02:01:09;101436.31;;;14.57;78.39
22333;BME280;11334;36.986;-121.936;2022-12-10T02:03:57;101429.66;;;14.53;78.83
22333;BME280;11334;36.986;-121.936;2022-12-10T02:06:50;101435.34;;;14.51;78.79
22333;BME280;11334;36.986;-121.936;2022-12-10T02:15:00;101417.97;;;14.39;79.66
22333;BME280;11334;36.986;-121.936;2022-12-10T02:20:21;101421.13;;;14.42;79.28
22333;BME280;11334;36.986;-121.936;2022-12-10T02:23:07;101418.47;;;14.42;79.63
22333;BME280;11334;36.986;-121.936;2022-12-10T02:26:01;101424.47;;;14.44;79.59
22333;BME280;11334;36.986;-121.936;2022-12-10T02:31:26;101413.81;;;14.44;79.44
22333;BME280;11334;36.986;-121.936;2022-12-10T02:33:58;101413.66;;;14.46;79.49
22333;BME280;11334;36.986;-121.936;2022-12-10T02:36:29;101415.66;;;14.52;79.70
22333;BME280;11334;36.986;-121.936;2022-12-10T02:39:00;101419.00;;;14.53;79.28
22333;BME280;11334;36.986;-121.936;2022-12-10T02:41:32;101408.13;;;14.55;78.67
22333;BME280;11334;36.986;-121.936;2022-12-10T02:44:04;101412.84;;;14.53;79.16
22333;BME280;11334;36.986;-121.936;2022-12-10T02:46:33;101416.16;;;14.55;78.95
22333;BME280;11334;36.986;-121.936;2022-12-10T02:49:02;101413.00;;;14.59;78.65
22333;BME280;11334;36.986;-121.936;2022-12-10T02:51:29;101403.81;;;14.62;78.28
22333;BME280;11334;36.986;-121.936;2022-12-10T02:54:05;101398.97;;;14.57;78.78
22333;BME280;11334;36.986;-121.936;2022-12-10T02:56:57;101404.16;;;14.59;79.06
22333;BME280;11334;36.986;-121.936;2022-12-10T02:59:40;101394.66;;;14.49;79.03
22333;BME280;11334;36.986;-121.936;2022-12-10T03:02:19;101403.00;;;14.53;79.32
22333;BME280;11334;36.986;-121.936;2022-12-10T03:07:55;101408.13;;;14.55;78.94
22333;BME280;11334;36.986;-121.936;2022-12-10T03:11:18;101400.00;;;14.49;79.04
22333;BME280;11334;36.986;-121.936;2022-12-10T03:13:23;101395.47;;;14.49;79.34
22333;BME280;11334;36.986;-121.936;2022-12-10T03:15:53;101390.50;;;14.46;79.63
22333;BME280;11334;36.986;-121.936;2022-12-10T03:18:23;101401.84;;;14.48;79.36
22333;BME280;11334;36.986;-121.936;2022-12-10T03:20:52;101393.31;;;14.45;79.21
22333;BME280;11334;36.986;-121.936;2022-12-10T03:23:20;101409.66;;;14.50;79.66
22333;BME280;11334;36.986;-121.936;2022-12-10T03:25:49;101401.81;;;14.56;79.08
22333;BME280;11334;36.986;-121.936;2022-12-10T03:28:18;101396.31;;;14.50;78.49
22333;BME280;11334;36.986;-121.936;2022-12-10T03:30:46;101411.47;;;14.57;78.96
22333;BME280;11334;36.986;-121.936;2022-12-10T03:33:14;101417.00;;;14.55;79.16
22333;BME280;11334;36.986;-121.936;2022-12-10T03:35:41;101422.81;;;14.59;78.89
22333;BME280;11334;36.986;-121.936;2022-12-10T03:38:08;101423.16;;;14.64;78.68
22333;BME280;11334;36.986;-121.936;2022-12-10T03:40:35;101411.81;;;14.62;78.78
22333;BME280;11334;36.986;-121.936;2022-12-10T03:43:02;101414.16;;;14.65;78.98
22333;BME280;11334;36.986;-121.936;2022-12-10T03:45:28;101408.00;;;14.64;78.84
22333;BME280;11334;36.986;-121.936;2022-12-10T03:47:54;101411.47;;;14.65;78.70
22333;BME280;11334;36.986;-121.936;2022-12-10T03:50:20;101413.31;;;14.56;79.00
22333;BME280;11334;36.986;-121.936;2022-12-10T03:52:47;101400.81;;;14.57;79.17
22333;BME280;11334;36.986;-121.936;2022-12-10T03:55:13;101402.66;;;14.56;78.86
22333;BME280;11334;36.986;-121.936;2022-12-10T03:57:39;101408.13;;;14.55;79.21
22333;BME280;11334;36.986;-121.936;2022-12-10T04:00:06;101411.31;;;14.58;79.28
22333;BME280;11334;36.986;-121.936;2022-12-10T04:02:33;101411.00;;;14.53;79.13
22333;BME280;11334;36.986;-121.936;2022-12-10T04:04:59;101409.66;;;14.50;79.40
22333;BME280;11334;36.986;-121.936;2022-12-10T04:07:25;101415.50;;;14.53;79.14
22333;BME280;11334;36.986;-121.936;2022-12-10T04:09:51;101420.31;;;14.57;78.94
22333;BME280;11334;36.986;-121.936;2022-12-10T04:12:18;101426.16;;;14.53;78.72
22333;BME280;11334;36.986;-121.936;2022-12-10T04:14:44;101416.66;;;14.51;78.73
22333;BME280;11334;36.986;-121.936;2022-12-10T04:17:45;101416.00;;;14.49;78.60
22333;BME280;11334;36.986;-121.936;2022-12-10T04:20:11;101411.81;;;14.38;78.99
22333;BME280;11334;36.986;-121.936;2022-12-10T04:22:56;101410.13;;;14.37;79.35
22333;BME280;11334;36.986;-121.936;2022-12-10T04:25:41;101409.78;;;14.40;79.05
22333;BME280;11334;36.986;-121.936;2022-12-10T04:28:26;101389.13;;;14.26;79.48
22333;BME280;11334;36.986;-121.936;2022-12-10T04:30:52;101406.47;;;14.38;79.17
22333;BME280;11334;36.986;-121.936;2022-12-10T04:33:18;101410.81;;;14.39;79.38
22333;BME280;11334;36.986;-121.936;2022-12-10T04:35:44;101411.47;;;14.41;78.90
22333;BME280;11334;36.986;-121.936;2022-12-10T04:38:11;101397.63;;;14.38;79.07
22333;BME280;11334;36.986;-121.936;2022-12-10T04:40:37;101402.97;;;14.38;78.97
22333;BME280;11334;36.986;-121.936;2022-12-10T04:43:03;101412.44;;;14.32;78.80
22333;BME280;11334;36.986;-121.936;2022-12-10T04:45:29;101399.13;;;14.32;78.77
22333;BME280;11334;36.986;-121.936;2022-12-10T04:47:56;101414.44;;;14.22;79.21
22333;BME280;11334;36.986;-121.936;2022-12-10T04:50:22;101398.44;;;14.15;79.08
22333;BME280;11334;36.986;-121.936;2022-12-10T04:52:48;101417.78;;;14.24;79.11
22333;BME280;11334;36.986;-121.936;2022-12-10T04:55:14;101426.44;;;14.26;78.98
22333;BME280;11334;36.986;-121.936;2022-12-10T04:57:42;101422.44;;;14.22;78.75
22333;BME280;11334;36.986;-121.936;2022-12-10T05:00:09;101418.09;;;14.22;78.93
22333;BME280;11334;36.986;-121.936;2022-12-10T05:02:35;101406.44;;;14.15;79.42
22333;BME280;11334;36.986;-121.936;2022-12-10T05:05:01;101399.72;;;14.03;80.18
22333;BME280;11334;36.986;-121.936;2022-12-10T05:07:28;101417.91;;;14.15;79.90
22333;BME280;11334;36.986;-121.936;2022-12-10T05:09:54;101417.91;;;14.15;79.11
22333;BME280;11334;36.986;-121.936;2022-12-10T05:12:20;101402.72;;;14.00;79.13
22333;BME280;11334;36.986;-121.936;2022-12-10T05:14:46;101400.41;;;14.05;78.83
22333;BME280;11334;36.986;-121.936;2022-12-10T05:17:13;101415.09;;;14.17;78.58
22333;BME280;11334;36.986;-121.936;2022-12-10T05:19:39;101415.91;;;14.09;78.85
22333;BME280;11334;36.986;-121.936;2022-12-10T05:22:05;101418.09;;;14.14;79.21
22333;BME280;11334;36.986;-121.936;2022-12-10T05:24:49;101422.09;;;14.18;79.32
22333;BME280;11334;36.986;-121.936;2022-12-10T05:27:15;101423.09;;;14.09;79.59
22333;BME280;11334;36.986;-121.936;2022-12-10T05:29:42;101422.22;;;14.08;79.54
22333;BME280;11334;36.986;-121.936;2022-12-10T05:32:08;101417.91;;;14.07;79.28
22333;BME280;11334;36.986;-121.936;2022-12-10T05:34:34;101417.06;;;14.07;79.83
22333;BME280;11334;36.986;-121.936;2022-12-10T05:37:00;101425.06;;;14.07;79.61
22333;BME280;11334;36.986;-121.936;2022-12-10T05:39:26;101420.09;;;14.12;79.65
22333;BME280;11334;36.986;-121.936;2022-12-10T05:41:53;101408.72;;;14.02;79.56
22333;BME280;11334;36.986;-121.936;2022-12-10T05:44:19;101411.75;;;14.07;79.64
22333;BME280;11334;36.986;-121.936;2022-12-10T05:46:45;101394.47;;;13.86;80.25
22333;BME280;11334;36.986;-121.936;2022-12-10T05:49:11;101400.75;;;14.02;79.61
22333;BME280;11334;36.986;-121.936;2022-12-10T05:51:38;101395.41;;;14.02;79.92
22333;BME280;11334;36.986;-121.936;2022-12-10T05:54:06;101392.06;;;14.00;79.80
22333;BME280;11334;36.986;-121.936;2022-12-10T05:56:32;101400.22;;;13.98;79.87
22333;BME280;11334;36.986;-121.936;2022-12-10T05:59:02;101392.56;;;14.03;79.30
22333;BME280;11334;36.986;-121.936;2022-12-10T06:01:32;101400.56;;;14.03;79.31
22333;BME280;11334;36.986;-121.936;2022-12-10T06:04:00;101400.75;;;14.02;78.98
22333;BME280;11334;36.986;-121.936;2022-12-10T06:06:29;101390.69;;;13.96;78.98
22333;BME280;11334;36.986;-121.936;2022-12-10T06:08:56;101391.00;;;13.93;78.98
22333;BME280;11334;36.986;-121.936;2022-12-10T06:11:23;101388.88;;;13.96;79.07
22333;BME280;11334;36.986;-121.936;2022-12-10T06:13:49;101376.19;;;13.90;79.07
22333;BME280;11334;36.986;-121.936;2022-12-10T06:16:16;101358.06;;;13.86;79.24
22333;BME280;11334;36.986;-121.936;2022-12-10T06:18:43;101354.03;;;13.82;79.38
22333;BME280;11334;36.986;-121.936;2022-12-10T06:21:14;101359.34;;;13.82;79.84
22333;BME280;11334;36.986;-121.936;2022-12-10T06:23:41;101375.34;;;13.90;79.51
22333;BME280;11334;36.986;-121.936;2022-12-10T06:26:10;101365.53;;;13.90;79.32
22333;BME280;11334;36.986;-121.936;2022-12-10T06:28:37;101363.53;;;13.85;79.59
22333;BME280;11334;36.986;-121.936;2022-12-10T06:31:04;101346.69;;;13.76;79.77
22333;BME280;11334;36.986;-121.936;2022-12-10T06:33:31;101371.38;;;13.86;79.63
22333;BME280;11334;36.986;-121.936;2022-12-10T06:35:58;101369.00;;;13.83;79.43
22333;BME280;11334;36.986;-121.936;2022-12-10T06:38:24;101371.38;;;13.86;79.31
22333;BME280;11334;36.986;-121.936;2022-12-10T06:40:50;101360.19;;;13.90;78.77
22333;BME280;11334;36.986;-121.936;2022-12-10T06:43:17;101357.06;;;13.95;78.34
22333;BME280;11334;36.986;-121.936;2022-12-10T06:45:43;101363.22;;;13.95;78.40
22333;BME280;11334;36.986;-121.936;2022-12-10T06:48:09;101358.06;;;13.86;79.27
22333;BME280;11334;36.986;-121.936;2022-12-10T06:50:36;101348.38;;;13.85;79.47
22333;BME280;11334;36.986;-121.936;2022-12-10T06:53:02;101349.19;;;13.86;79.03
22333;BME280;11334;36.986;-121.936;2022-12-10T06:55:29;101353.38;;;13.88;79.08
22333;BME280;11334;36.986;-121.936;2022-12-10T06:57:55;101335.72;;;13.87;78.90
22333;BME280;11334;36.986;-121.936;2022-12-10T07:00:22;101334.38;;;13.91;78.74
22333;BME280;11334;36.986;-121.936;2022-12-10T07:02:48;101335.72;;;13.79;79.19
22333;BME280;11334;36.986;-121.936;2022-12-10T07:05:15;101356.38;;;13.85;78.72
22333;BME280;11334;36.986;-121.936;2022-12-10T07:07:41;101354.50;;;13.70;79.01
22333;BME280;11334;36.986;-121.936;2022-12-10T07:10:08;101357.97;;;13.70;79.14
22333;BME280;11334;36.986;-121.936;2022-12-10T07:12:34;101344.78;;;13.61;79.18
22333;BME280;11334;36.986;-121.936;2022-12-10T07:15:01;101362.47;;;13.70;79.15
22333;BME280;11334;36.986;-121.936;2022-12-10T07:17:27;101373.47;;;13.75;79.06
22333;BME280;11334;36.986;-121.936;2022-12-10T07:19:53;101371.16;;;13.72;79.38
22333;BME280;11334;36.986;-121.936;2022-12-10T07:22:19;101371.16;;;13.72;79.54
22333;BME280;11334;36.986;-121.936;2022-12-10T07:24:48;101380.16;;;13.79;79.44
22333;BME280;11334;36.986;-121.936;2022-12-10T07:27:14;101368.84;;;13.77;79.28
22333;BME280;11334;36.986;-121.936;2022-12-10T07:29:40;101357.84;;;13.72;79.24
22333;BME280;11334;36.986;-121.936;2022-12-10T07:32:06;101314.31;;;13.48;78.93
22333;BME280;11334;36.986;-121.936;2022-12-10T07:34:33;101352.78;;;13.61;79.68
22333;BME280;11334;36.986;-121.936;2022-12-10T07:36:59;101341.66;;;13.65;80.06
22333;BME280;11334;36.986;-121.936;2022-12-10T07:39:25;101347.31;;;13.70;79.47
22333;BME280;11334;36.986;-121.936;2022-12-10T07:41:52;101319.84;;;13.62;79.38
22333;BME280;11334;36.986;-121.936;2022-12-10T07:44:20;101316.19;;;13.71;79.25
22333;BME280;11334;36.986;-121.936;2022-12-10T07:46:48;101319.66;;;13.63;79.63
22333;BME280;11334;36.986;-121.936;2022-12-10T07:49:15;101332.97;;;13.63;79.42
22333;BME280;11334;36.986;-121.936;2022-12-10T07:51:45;101308.97;;;13.48;79.42
22333;BME280;11334;36.986;-121.936;2022-12-10T07:54:12;101331.13;;;13.56;80.02
22333;BME280;11334;36.986;-121.936;2022-12-10T07:56:38;101333.50;;;13.59;79.67
22333;BME280;11334;36.986;-121.936;2022-12-10T07:59:05;101313.50;;;13.55;78.98
22333;BME280;11334;36.986;-121.936;2022-12-10T08:01:31;101317.00;;;13.56;78.51
22333;BME280;11334;36.986;-121.936;2022-12-10T08:03:57;101323.00;;;13.57;78.01
22333;BME280;11334;36.986;-121.936;2022-12-10T08:06:25;101316.66;;;13.58;77.54
22333;BME280;11334;36.986;-121.936;2022-12-10T08:08:52;101303.31;;;13.43;76.15
22333;BME280;11334;36.986;-121.936;2022-12-10T08:11:19;101321.81;;;13.52;76.53
22333;BME280;11334;36.986;-121.936;2022-12-10T08:13:48;101318.97;;;13.46;76.97
22333;BME280;11334;36.986;-121.936;2022-12-10T08:16:19;101319.16;;;13.52;76.68
22333;BME280;11334;36.986;-121.936;2022-12-10T08:18:48;101295.53;;;13.49;76.49
22333;BME280;11334;36.986;-121.936;2022-12-10T08:21:17;101292.19;;;13.47;76.23
22333;BME280;11334;36.986;-121.936;2022-12-10T08:23:44;101293.34;;;13.45;76.70
22333;BME280;11334;36.986;-121.936;2022-12-10T08:26:19;101293.81;;;13.40;77.71
22333;BME280;11334;36.986;-121.936;2022-12-10T08:28:47;101281.88;;;13.44;76.91
22333;BME280;11334;36.986;-121.936;2022-12-10T08:31:14;101273.22;;;13.42;77.95
22333;BME280;11334;36.986;-121.936;2022-12-10T08:33:41;101271.72;;;13.48;78.01
22333;BME280;11334;36.986;-121.936;2022-12-10T08:36:10;101262.22;;;13.45;77.70
22333;BME280;11334;36.986;-121.936;2022-12-10T08:38:41;101253.41;;;13.45;77.60
22333;BME280;11334;36.986;-121.936;2022-12-10T08:41:09;101249.06;;;13.44;78.17
22333;BME280;11334;36.986;-121.936;2022-12-10T08:43:36;101243.56;;;13.37;78.19
22333;BME280;11334;36.986;-121.936;2022-12-10T08:46:02;101252.88;;;13.33;79.15
22333;BME280;11334;36.986;-121.936;2022-12-10T08:48:29;101249.59;;;13.39;78.94
22333;BME280;11334;36.986;-121.936;2022-12-10T08:50:56;101238.13;;;13.47;79.22
22333;BME280;11334;36.986;-121.936;2022-12-10T08:53:22;101233.41;;;13.33;79.23
22333;BME280;11334;36.986;-121.936;2022-12-10T08:55:53;101242.41;;;13.32;79.96
22333;BME280;11334;36.986;-121.936;2022-12-10T08:58:20;101231.09;;;13.30;80.02
22333;BME280;11334;36.986;-121.936;2022-12-10T09:00:48;101227.59;;;13.37;79.20
22333;BME280;11334;36.986;-121.936;2022-12-10T09:03:15;101206.78;;;13.33;78.96
22333;BME280;11334;36.986;-121.936;2022-12-10T09:05:41;101213.81;;;13.42;79.05
22333;BME280;11334;36.986;-121.936;2022-12-10T09:08:08;101204.81;;;13.35;79.16
22333;BME280;11334;36.986;-121.936;2022-12-10T09:10:38;101202.50;;;13.40;79.02
22333;BME280;11334;36.986;-121.936;2022-12-10T09:13:04;101190.50;;;13.28;78.76
22333;BME280;11334;36.986;-121.936;2022-12-10T09:15:31;101202.97;;;13.35;79.59
22333;BME280;11334;36.986;-121.936;2022-12-10T09:17:57;101202.81;;;13.37;79.46
22333;BME280;11334;36.986;-121.936;2022-12-10T09:20:23;101211.47;;;13.39;79.16
22333;BME280;11334;36.986;-121.936;2022-12-10T09:22:50;101194.16;;;13.35;79.16
22333;BME280;11334;36.986;-121.936;2022-12-10T09:25:16;101196.66;;;13.36;79.15
22333;BME280;11334;36.986;-121.936;2022-12-10T09:27:43;101181.81;;;13.26;79.22
22333;BME280;11334;36.986;-121.936;2022-12-10T09:30:11;101198.31;;;13.29;79.83
22333;BME280;11334;36.986;-121.936;2022-12-10T09:32:37;101192.47;;;13.26;79.85
22333;BME280;11334;36.986;-121.936;2022-12-10T09:35:03;101193.97;;;13.28;79.85
22333;BME280;11334;36.986;-121.936;2022-12-10T09:37:30;101190.97;;;13.31;79.68
22333;BME280;11334;36.986;-121.936;2022-12-10T09:39:56;101192.13;;;13.29;79.98
22333;BME280;11334;36.986;-121.936;2022-12-10T09:46:02;101177.38;;;13.34;79.58
22333;BME280;11334;36.986;-121.936;2022-12-10T09:48:22;101182.03;;;13.32;79.37
22333;BME280;11334;36.986;-121.936;2022-12-10T09:51:05;101179.84;;;13.28;79.08
22333;BME280;11334;36.986;-121.936;2022-12-10T09:53:36;101176.69;;;13.32;79.04
22333;BME280;11334;36.986;-121.936;2022-12-10T09:56:04;101171.38;;;13.32;79.05
22333;BME280;11334;36.986;-121.936;2022-12-10T09:58:31;101173.22;;;13.32;79.13
22333;BME280;11334;36.986;-121.936;2022-12-10T10:01:04;101175.88;;;13.32;79.60
22333;BME280;11334;36.986;-121.936;2022-12-10T10:03:38;101179.84;;;13.36;79.62
22333;BME280;11334;36.986;-121.936;2022-12-10T10:06:08;101183.00;;;13.31;79.66
22333;BME280;11334;36.986;-121.936;2022-12-10T10:08:42;101178.34;;;13.26;80.03
22333;BME280;11334;36.986;-121.936;2022-12-10T10:11:18;101157.88;;;13.26;79.84
22333;BME280;11334;36.986;-121.936;2022-12-10T10:16:26;101160.25;;;13.37;79.52
22333;BME280;11334;36.986;-121.936;2022-12-10T10:21:34;101143.06;;;13.31;79.62
22333;BME280;11334;36.986;-121.936;2022-12-10T10:24:05;101145.25;;;13.36;79.91
22333;BME280;11334;36.986;-121.936;2022-12-10T10:26:33;101130.44;;;13.33;79.88
22333;BME280;11334;36.986;-121.936;2022-12-10T10:29:07;101133.09;;;13.41;79.77
22333;BME280;11334;36.986;-121.936;2022-12-10T10:31:35;101117.47;;;13.38;79.94
22333;BME280;11334;36.986;-121.936;2022-12-10T10:34:13;101112.34;;;13.37;80.05
22333;BME280;11334;36.986;-121.936;2022-12-10T10:36:39;101103.50;;;13.36;79.85
22333;BME280;11334;36.986;-121.936;2022-12-10T10:39:25;101068.22;;;13.19;80.25
22333;BME280;11334;36.986;-121.936;2022-12-10T10:41:54;101088.88;;;13.32;80.01
22333;BME280;11334;36.986;-121.936;2022-12-10T10:44:22;101066.72;;;13.24;80.42
22333;BME280;11334;36.986;-121.936;2022-12-10T10:46:51;101068.75;;;13.22;80.57
22333;BME280;11334;36.986;-121.936;2022-12-10T10:49:31;101084.72;;;13.30;80.34
22333;BME280;11334;36.986;-121.936;2022-12-10T10:52:04;101081.72;;;13.33;79.85
22333;BME280;11334;36.986;-121.936;2022-12-10T10:54:41;101075.91;;;13.37;80.09
22333;BME280;11334;36.986;-121.936;2022-12-10T10:57:43;101077.56;;;13.30;80.27
22333;BME280;11334;36.986;-121.936;2022-12-10T11:00:21;101072.91;;;13.32;80.42
22333;BME280;11334;36.986;-121.936;2022-12-10T11:02:51;101069.41;;;13.24;80.83
22333;BME280;11334;36.986;-121.936;2022-12-10T11:05:22;101071.75;;;13.27;80.27
22333;BME280;11334;36.986;-121.936;2022-12-10T11:07:58;101070.25;;;13.32;80.63
22333;BME280;11334;36.986;-121.936;2022-12-10T11:10:26;101077.22;;;13.33;79.96
22333;BME280;11334;36.986;-121.936;2022-12-10T11:13:18;101077.06;;;13.35;79.98
22333;BME280;11334;36.986;-121.936;2022-12-10T11:15:44;101077.41;;;13.32;79.89
22333;BME280;11334;36.986;-121.936;2022-12-10T11:18:30;101076.72;;;13.30;79.61
22333;BME280;11334;36.986;-121.936;2022-12-10T11:21:04;101088.69;;;13.34;79.79
22333;BME280;11334;36.986;-121.936;2022-12-10T11:23:38;101081.53;;;13.26;79.87
22333;BME280;11334;36.986;-121.936;2022-12-10T11:29:17;101075.06;;;13.29;79.88
22333;BME280;11334;36.986;-121.936;2022-12-10T11:42:46;101066.09;;;13.30;80.58
22333;BME280;11334;36.986;-121.936;2022-12-10T11:53:55;101054.63;;;13.29;81.36
22333;BME280;11334;36.986;-121.936;2022-12-10T11:56:37;101053.28;;;13.26;81.46
22333;BME280;11334;36.986;-121.936;2022-12-10T12:15:40;101034.81;;;13.08;83.22
22333;BME280;11334;36.986;-121.936;2022-12-10T12:18:45;101028.66;;;13.08;83.48
22333;BME280;11334;36.986;-121.936;2022-12-10T12:21:15;101029.81;;;13.13;83.48
22333;BME280;11334;36.986;-121.936;2022-12-10T12:23:52;101018.34;;;13.13;83.43
22333;BME280;11334;36.986;-121.936;2022-12-10T12:26:36;101012.38;;;13.11;83.67
22333;BME280;11334;36.986;-121.936;2022-12-10T12:32:21;101009.84;;;13.09;83.94
22333;BME280;11334;36.986;-121.936;2022-12-10T12:35:56;101000.72;;;13.04;84.43
22333;BME280;11334;36.986;-121.936;2022-12-10T12:38:05;100997.91;;;13.05;84.53
22333;BME280;11334;36.986;-121.936;2022-12-10T12:40:56;100976.13;;;12.94;84.24
22333;BME280;11334;36.986;-121.936;2022-12-10T12:46:09;100971.78;;;13.09;84.42
22333;BME280;11334;36.986;-121.936;2022-12-10T12:51:22;100926.09;;;12.90;84.59
22333;BME280;11334;36.986;-121.936;2022-12-10T12:53:50;100942.88;;;13.06;84.49
22333;BME280;11334;36.986;-121.936;2022-12-10T12:59:28;100940.69;;;13.09;84.28
22333;BME280;11334;36.986;-121.936;2022-12-10T13:02:08;100940.06;;;13.07;84.46
22333;BME280;11334;36.986;-121.936;2022-12-10T13:04:39;100918.78;;;13.07;84.91
22333;BME280;11334;36.986;-121.936;2022-12-10T13:07:32;100911.28;;;13.03;85.08
22333;BME280;11334;36.986;-121.936;2022-12-10T13:12:46;100914.31;;;13.00;85.64
22333;BME280;11334;36.986;-121.936;2022-12-10T13:15:21;100911.44;;;13.01;85.35
22333;BME280;11334;36.986;-121.936;2022-12-10T13:18:04;100908.44;;;13.04;85.19
22333;BME280;11334;36.986;-121.936;2022-12-10T13:20:40;100903.47;;;13.01;85.53
22333;BME280;11334;36.986;-121.936;2022-12-10T13:34:05;100907.47;;;13.05;85.73
22333;BME280;11334;36.986;-121.936;2022-12-10T13:36:36;100902.28;;;13.12;85.65
22333;BME280;11334;36.986;-121.936;2022-12-10T13:41:33;100882.84;;;13.11;85.17
22333;BME280;11334;36.986;-121.936;2022-12-10T13:44:48;100874.34;;;13.16;84.95
22333;BME280;11334;36.986;-121.936;2022-12-10T13:49:59;100870.38;;;13.12;84.89
22333;BME280;11334;36.986;-121.936;2022-12-10T14:00:06;100870.22;;;13.13;85.35
22333;BME280;11334;36.986;-121.936;2022-12-10T14:03:00;100849.59;;;13.15;85.33
22333;BME280;11334;36.986;-121.936;2022-12-10T14:05:47;100837.13;;;13.16;84.96
22333;BME280;11334;36.986;-121.936;2022-12-10T14:08:23;100848.25;;;13.11;85.64
22333;BME280;11334;36.986;-121.936;2022-12-10T14:10:52;100838.28;;;13.13;85.81
22333;BME280;11334;36.986;-121.936;2022-12-10T14:13:21;100839.78;;;13.16;85.91
22333;BME280;11334;36.986;-121.936;2022-12-10T14:15:54;100822.63;;;13.18;85.49
22333;BME280;11334;36.986;-121.936;2022-12-10T14:18:22;100823.81;;;13.16;85.53